Ottawa Macdonald-Cartier International Airport
CYOW : now visible

Airfield :











YOU CAN JOIN US ON...

 
LOGIN :

Register | Disclaimer

   EN    FR    IT 

 









Legend :    VFR   Marginal VFR   IFR   Intensive IFR   Very Intensive IFR
Visi :
Ceiling :
>= 8 km
>= 3000ft
5 to 8 km
1000 to 3000 ft
1500m to 5 km
500 to 1000 ft
800 to 1500m
200 to 500 ft
< 800m
< 200 ft
Symbols :   Thunderstorms  Fog  Heavy snow  Heavy precipitations  Wind > 20 kt






- Airport Elevation : 374 ft
- IATA code : YOW


CYOW - Ottawa Macdonald-Cartier International

CURRENT METAR :
  • 041600Z 07006KT 15SM -RA BKN005 OVC015 19/18 A2991 RMK SF6SC2 SLP129 DENSITY ALT 1000FT

EXPIRED METARs :
  • 041500Z 07006KT 15SM -RA BKN005 OVC015 19/18 A2991 RMK SF5SC3 SLP131 DENSITY ALT 900FT
  • 041400Z 08013KT 15SM -RA SCT006 OVC017 18/17 A2991 RMK SF4SC4 PRESFR SLP131 DENSITY ALT 900FT
  • 041353Z 09007KT 15SM -RA SCT006 OVC016 18/17 A2993 RMK SF4SC4 SLP136 DENSITY ALT 900FT

TAF TAF CYOW
Valid from the 04 at 15:00 until the 05 at 12:00 UTC


041438Z 0415/0512 08012KT 4SM -SHRA BR BKN006 OVC015
TEMPO 0415/0418 P6SM -SHRA SCT008 OVC020
FM050200 33008KT P6SM -SHRA BKN008 OVC030
FM050600 25010KT P6SM OVC008 RMK NXT FCST BY 041800Z
CZUL FIR / North America



MET'MAP, your aeronautical weather chart ! - Copyright ORBIFLY December 2007 - Disclaimer

ORBIFLY MET'MAP TEAM :

Programming & Development : Alexandra Zaïnal
Concept & original design : Baudouin d'Aumeries
Assistance for programming : Marc-Olivier Méhu
Technical & hardware support : Manuel Goepfert

Contact : metmap@orbifly.com




SOURCES & CREDITS :

   NOAA       Earth
Advisory